createdAt,value
2023-01-26T00:02:20.662Z,99756.06
2023-01-26T00:07:23.585Z,99751.16
2023-01-26T00:12:27.790Z,99747.63
2023-01-26T00:17:30.712Z,99750.47
2023-01-26T00:22:33.650Z,99749.69
2023-01-26T00:27:37.934Z,99737.97
2023-01-26T00:32:40.901Z,99734.97
2023-01-26T00:37:45.533Z,99736.06
2023-01-26T00:42:54.416Z,99728.56
2023-01-26T00:47:57.364Z,99727.28
2023-01-26T00:53:00.348Z,99715.84
2023-01-26T00:58:06.686Z,99718.03
2023-01-26T01:03:09.620Z,99726.53
2023-01-26T01:08:12.564Z,99726.47
2023-01-26T01:13:16.844Z,99721.25
2023-01-26T01:18:19.763Z,99738.91
2023-01-26T01:23:22.829Z,99720.34
2023-01-26T01:28:27.132Z,99727.69
2023-01-26T01:33:30.064Z,99718.81
2023-01-26T01:38:34.205Z,99717.47
2023-01-26T01:43:39.214Z,99703.63
2023-01-26T01:48:50.367Z,99700.09
2023-01-26T01:53:54.623Z,99686.22
2023-01-26T01:59:00.943Z,99681.34
2023-01-26T02:04:07.109Z,99665.84
2023-01-26T02:09:30.821Z,99675.63
2023-01-26T02:14:35.188Z,99666.94
2023-01-26T02:19:47.212Z,99662.06
2023-01-26T02:24:51.797Z,99653.50
2023-01-26T02:29:58.456Z,99648.47
2023-01-26T02:35:02.614Z,99632.56
2023-01-26T02:40:14.226Z,99627.53
2023-01-26T02:45:18.771Z,99611.78
2023-01-26T02:50:22.761Z,99606.56
2023-01-26T02:55:28.711Z,99598.78
2023-01-26T03:00:37.189Z,99610.13
2023-01-26T03:05:40.535Z,99603.31
2023-01-26T03:10:43.673Z,99601.31
2023-01-26T03:15:52.693Z,99614.22
2023-01-26T03:21:14.743Z,99600.06
2023-01-26T03:26:35.770Z,99594.91
2023-01-26T03:31:40.336Z,99599.25
2023-01-26T03:36:43.507Z,99593.56
2023-01-26T03:42:07.276Z,99590.84
2023-01-26T03:47:29.397Z,99590.38
2023-01-26T03:52:50.758Z,99585.22
2023-01-26T03:57:53.911Z,99579.66
2023-01-26T04:03:15.926Z,99581.63
2023-01-26T04:08:24.739Z,99572.22
2023-01-26T04:13:50.031Z,99561.41
2023-01-26T04:19:18.009Z,99559.16
2023-01-26T04:24:23.015Z,99563.69
2023-01-26T04:29:30.655Z,99556.84
2023-01-26T04:34:36.334Z,99566.34
2023-01-26T04:39:46.968Z,99556.19
2023-01-26T04:44:50.111Z,99546.41
2023-01-26T04:49:55.459Z,99539.22
2023-01-26T04:55:00.129Z,99538.13
2023-01-26T05:00:04.857Z,99530.78
2023-01-26T05:05:10.800Z,99535.25
2023-01-26T05:10:15.759Z,99537.84
2023-01-26T05:15:28.897Z,99548.06
2023-01-26T05:20:46.900Z,99551.38
2023-01-26T05:25:52.484Z,99556.28
2023-01-26T05:30:56.300Z,99554.97
2023-01-26T05:36:05.806Z,99553.41
2023-01-26T05:41:09.359Z,99561.59
2023-01-26T05:46:27.330Z,99557.69
2023-01-26T05:51:31.737Z,99559.00
2023-01-26T05:56:35.402Z,99552.69
2023-01-26T06:01:40.955Z,99554.41
2023-01-26T06:06:46.425Z,99553.56
2023-01-26T06:11:58.487Z,99552.22
2023-01-26T06:17:08.910Z,99560.13
2023-01-26T06:22:14.946Z,99560.13
2023-01-26T06:27:21.930Z,99562.84
2023-01-26T06:32:28.108Z,99570.91
2023-01-26T06:37:33.567Z,99563.28
2023-01-26T06:42:36.601Z,99558.50
2023-01-26T06:47:39.680Z,99563.22
2023-01-26T06:52:48.035Z,99560.38
2023-01-26T06:58:14.216Z,99551.09
2023-01-26T07:03:34.171Z,99557.28
2023-01-26T07:08:38.542Z,99547.41
2023-01-26T07:13:41.546Z,99551.16
2023-01-26T07:18:44.853Z,99553.44
2023-01-26T07:23:49.154Z,99552.63
2023-01-26T07:28:52.088Z,99549.31
2023-01-26T07:33:55.014Z,99551.66
2023-01-26T07:38:59.469Z,99544.47
2023-01-26T07:44:02.511Z,99550.88
2023-01-26T07:49:05.472Z,99548.91
2023-01-26T07:54:12.833Z,99551.41
2023-01-26T07:59:15.725Z,99550.56
2023-01-26T08:04:19.193Z,99559.25
2023-01-26T08:09:24.804Z,99555.63
2023-01-26T08:14:38.166Z,99555.19
2023-01-26T08:19:48.161Z,99549.59
2023-01-26T08:24:52.481Z,99546.53
2023-01-26T08:29:55.580Z,99543.38
2023-01-26T08:34:58.515Z,99541.06
2023-01-26T08:40:02.850Z,99535.00
2023-01-26T08:45:06.430Z,99538.28
2023-01-26T08:50:10.495Z,99539.22
2023-01-26T08:55:14.985Z,99538.09
2023-01-26T09:00:18.590Z,99544.41
2023-01-26T09:05:21.465Z,99545.72
2023-01-26T09:10:26.098Z,99558.91
2023-01-26T09:15:29.258Z,99558.16
2023-01-26T09:20:32.190Z,99555.91
2023-01-26T09:25:38.736Z,99548.66
2023-01-26T09:30:41.698Z,99565.72
2023-01-26T09:35:44.719Z,99574.81
2023-01-26T09:41:02.124Z,99565.66
2023-01-26T09:46:18.594Z,99571.00
2023-01-26T09:51:26.900Z,99579.31
2023-01-26T09:56:34.020Z,99569.41
2023-01-26T10:01:43.448Z,99561.72
2023-01-26T10:06:47.828Z,99569.94
2023-01-26T10:12:25.561Z,99576.09
2023-01-26T10:17:33.266Z,99564.31
2023-01-26T10:22:43.524Z,99564.50
2023-01-26T10:27:47.896Z,99558.94
2023-01-26T10:32:53.735Z,99564.34
2023-01-26T10:37:58.017Z,99559.63
2023-01-26T10:43:02.287Z,99549.31
2023-01-26T10:48:07.917Z,99541.34
2023-01-26T10:53:19.006Z,99540.03
2023-01-26T10:58:45.323Z,99542.13
2023-01-26T11:04:04.615Z,99538.53
2023-01-26T11:09:12.955Z,99525.09
2023-01-26T11:14:19.185Z,99529.59
2023-01-26T11:19:39.536Z,99531.50
2023-01-26T11:24:48.651Z,99529.53
2023-01-26T11:30:13.600Z,99528.50
2023-01-26T11:35:29.447Z,99511.38
2023-01-26T11:40:41.871Z,99510.47
2023-01-26T11:46:04.065Z,99500.84
2023-01-26T11:51:16.733Z,99494.25
2023-01-26T11:56:31.995Z,99487.81
2023-01-26T12:01:41.334Z,99493.41
2023-01-26T12:06:47.925Z,99485.91
2023-01-26T12:11:57.090Z,99481.81
2023-01-26T12:17:21.481Z,99478.63
2023-01-26T12:22:31.616Z,99456.16
2023-01-26T12:27:43.566Z,99463.94
2023-01-26T12:32:47.989Z,99456.75
2023-01-26T12:38:16.726Z,99454.72
2023-01-26T12:43:35.082Z,99450.75
2023-01-26T12:48:44.551Z,99445.47
2023-01-26T12:53:55.313Z,99443.94
2023-01-26T12:59:00.911Z,99440.94
2023-01-26T13:04:10.232Z,99437.09
2023-01-26T13:09:23.605Z,99419.28
2023-01-26T13:14:35.901Z,99427.44
2023-01-26T13:19:53.478Z,99422.28
2023-01-26T13:24:58.916Z,99429.38
2023-01-26T13:30:02.151Z,99436.72
2023-01-26T13:35:14.091Z,99433.03
2023-01-26T13:40:21.088Z,99424.31
2023-01-26T13:45:32.137Z,99424.31
2023-01-26T13:50:38.727Z,99426.75
2023-01-26T13:55:42.346Z,99426.06
2023-01-26T14:00:59.237Z,99434.16
2023-01-26T14:06:08.990Z,99441.88
2023-01-26T14:11:19.915Z,99433.00
2023-01-26T14:16:26.543Z,99432.44
2023-01-26T14:21:32.484Z,99429.44
2023-01-26T14:26:35.395Z,99434.03
2023-01-26T14:31:38.352Z,99426.19
2023-01-26T14:36:42.634Z,99434.34
2023-01-26T14:41:46.137Z,99437.72
2023-01-26T14:46:56.643Z,99430.69
2023-01-26T14:52:01.118Z,99435.50
2023-01-26T14:57:09.656Z,99437.34
2023-01-26T15:02:17.485Z,99433.84
2023-01-26T15:07:37.660Z,99441.19
2023-01-26T15:12:41.241Z,99442.72
2023-01-26T15:17:44.528Z,99446.47
2023-01-26T15:22:52.332Z,99444.28
2023-01-26T15:27:58.897Z,99447.41
2023-01-26T15:33:02.890Z,99453.03
2023-01-26T15:38:11.552Z,99458.75
2023-01-26T15:43:15.271Z,99448.22
2023-01-26T15:48:18.380Z,99454.94
2023-01-26T15:53:23.965Z,99446.91
2023-01-26T15:58:28.959Z,99457.94
2023-01-26T16:03:31.918Z,99460.34
2023-01-26T16:08:36.244Z,99465.97
2023-01-26T16:13:40.167Z,99464.91
2023-01-26T16:18:43.413Z,99469.88
2023-01-26T16:23:48.273Z,99484.75
2023-01-26T16:28:51.279Z,99475.19
2023-01-26T16:33:54.204Z,99467.75
2023-01-26T16:38:58.467Z,99472.13
2023-01-26T16:44:02.834Z,99479.88
2023-01-26T16:49:05.758Z,99474.16
2023-01-26T16:54:10.082Z,99472.38
2023-01-26T16:59:13.711Z,99464.88
2023-01-26T17:04:16.649Z,99468.50
2023-01-26T17:09:23.798Z,99467.28
2023-01-26T17:14:26.734Z,99478.50
2023-01-26T17:19:29.620Z,99484.13
2023-01-26T17:24:34.036Z,99485.28
2023-01-26T17:29:37.030Z,99483.91
2023-01-26T17:34:40.029Z,99491.38
2023-01-26T17:39:44.287Z,99499.69
2023-01-26T17:44:47.188Z,99492.94
2023-01-26T17:49:50.078Z,99494.41
2023-01-26T17:54:54.427Z,99492.44
2023-01-26T17:59:57.363Z,99500.63
2023-01-26T18:05:00.372Z,99499.84
2023-01-26T18:10:05.492Z,99507.94
2023-01-26T18:15:09.135Z,99505.38
2023-01-26T18:20:15.041Z,99504.00
2023-01-26T18:25:21.358Z,99511.88
2023-01-26T18:30:24.280Z,99511.41
2023-01-26T18:35:27.200Z,99519.84
2023-01-26T18:40:31.877Z,99517.91
2023-01-26T18:45:34.781Z,99517.66
2023-01-26T18:50:38.423Z,99522.63
2023-01-26T18:55:42.652Z,99523.25
2023-01-26T19:00:45.879Z,99518.34
2023-01-26T19:05:48.796Z,99519.97
2023-01-26T19:10:53.371Z,99525.63
2023-01-26T19:15:56.574Z,99523.41
2023-01-26T19:21:00.713Z,99518.94
2023-01-26T19:26:10.438Z,99514.97
2023-01-26T19:31:14.026Z,99516.22
2023-01-26T19:36:16.958Z,99528.50
2023-01-26T19:41:22.475Z,99513.91
2023-01-26T19:46:25.674Z,99512.16
2023-01-26T19:51:29.328Z,99521.19
2023-01-26T19:56:36.816Z,99529.72
2023-01-26T20:01:40.016Z,99516.47
2023-01-26T20:06:43.053Z,99509.66
2023-01-26T20:11:47.381Z,99510.59
2023-01-26T20:16:50.357Z,99510.66
2023-01-26T20:21:53.266Z,99524.44
2023-01-26T20:26:57.731Z,99515.06
2023-01-26T20:32:00.673Z,99499.59
2023-01-26T20:37:04.881Z,99491.66
2023-01-26T20:42:10.856Z,99485.19
2023-01-26T20:47:13.753Z,99490.09
2023-01-26T20:52:16.697Z,99488.88
2023-01-26T20:57:20.987Z,99495.78
2023-01-26T21:02:24.029Z,99488.47
2023-01-26T21:07:28.204Z,99500.50
2023-01-26T21:12:34.051Z,99499.75
2023-01-26T21:17:36.955Z,99510.03
2023-01-26T21:22:39.851Z,99520.16
2023-01-26T21:27:44.167Z,99518.16
2023-01-26T21:32:47.104Z,99519.41
2023-01-26T21:37:49.960Z,99504.53
2023-01-26T21:42:54.248Z,99493.41
2023-01-26T21:48:14.367Z,99508.66
2023-01-26T21:53:17.304Z,99516.78
2023-01-26T21:58:38.833Z,99516.16
2023-01-26T22:03:41.858Z,99525.88
2023-01-26T22:08:44.923Z,99518.00
2023-01-26T22:13:49.416Z,99517.66
2023-01-26T22:18:52.348Z,99514.31
2023-01-26T22:23:55.880Z,99511.00
2023-01-26T22:29:00.497Z,99512.72
2023-01-26T22:34:04.229Z,99492.13
2023-01-26T22:39:07.229Z,99502.06
2023-01-26T22:44:11.703Z,99488.84
2023-01-26T22:49:14.633Z,99486.06
2023-01-26T22:54:17.668Z,99473.13
2023-01-26T22:59:22.001Z,99483.47
2023-01-26T23:04:25.200Z,99489.97
2023-01-26T23:09:28.149Z,99494.88
2023-01-26T23:14:38.902Z,99500.50
2023-01-26T23:19:41.802Z,99501.69
2023-01-26T23:25:04.896Z,99506.09
2023-01-26T23:30:10.920Z,99498.59
2023-01-26T23:35:14.350Z,99506.38
2023-01-26T23:40:17.504Z,99494.44
2023-01-26T23:45:21.902Z,99488.00
2023-01-26T23:50:24.956Z,99495.81
2023-01-26T23:55:28.140Z,99489.31
